sensor_id;sensor_type;location;lat;lon;timestamp;temperature;humidity
1592;DHT22;789;51.612;7.510;2023-02-28T00:00:37;3.00;1.00
1592;DHT22;789;51.612;7.510;2023-02-28T00:03:04;3.00;1.00
1592;DHT22;789;51.612;7.510;2023-02-28T00:05:31;2.90;1.00
1592;DHT22;789;51.612;7.510;2023-02-28T00:08:00;2.90;1.00
1592;DHT22;789;51.612;7.510;2023-02-28T00:10:28;2.90;1.00
1592;DHT22;789;51.612;7.510;2023-02-28T00:12:58;2.90;1.00
1592;DHT22;789;51.612;7.510;2023-02-28T00:15:25;2.90;1.00
1592;DHT22;789;51.612;7.510;2023-02-28T00:17:52;2.80;1.00
1592;DHT22;789;51.612;7.510;2023-02-28T00:20:19;2.80;1.00
1592;DHT22;789;51.612;7.510;2023-02-28T00:22:48;2.80;1.00
1592;DHT22;789;51.612;7.510;2023-02-28T00:25:19;2.80;1.00
1592;DHT22;789;51.612;7.510;2023-02-28T00:27:46;2.80;1.00
1592;DHT22;789;51.612;7.510;2023-02-28T00:30:15;2.80;1.00
1592;DHT22;789;51.612;7.510;2023-02-28T00:32:42;2.80;1.00
1592;DHT22;789;51.612;7.510;2023-02-28T00:35:09;2.80;1.00
1592;DHT22;789;51.612;7.510;2023-02-28T00:37:36;2.70;1.00
1592;DHT22;789;51.612;7.510;2023-02-28T00:40:04;2.70;1.00
1592;DHT22;789;51.612;7.510;2023-02-28T00:42:33;2.80;1.00
1592;DHT22;789;51.612;7.510;2023-02-28T00:44:59;2.70;1.00
1592;DHT22;789;51.612;7.510;2023-02-28T00:47:26;3.10;1.00
1592;DHT22;789;51.612;7.510;2023-02-28T00:49:53;2.70;1.00
1592;DHT22;789;51.612;7.510;2023-02-28T00:52:20;2.70;1.00
1592;DHT22;789;51.612;7.510;2023-02-28T00:54:46;2.70;1.00
1592;DHT22;789;51.612;7.510;2023-02-28T00:57:13;2.80;1.00
1592;DHT22;789;51.612;7.510;2023-02-28T00:59:41;2.90;1.00
1592;DHT22;789;51.612;7.510;2023-02-28T01:02:07;2.80;1.00
1592;DHT22;789;51.612;7.510;2023-02-28T01:04:35;2.80;1.00
1592;DHT22;789;51.612;7.510;2023-02-28T01:07:02;2.80;1.00
1592;DHT22;789;51.612;7.510;2023-02-28T01:09:28;2.80;1.00
1592;DHT22;789;51.612;7.510;2023-02-28T01:11:55;2.80;1.00
1592;DHT22;789;51.612;7.510;2023-02-28T01:14:22;2.80;1.00
1592;DHT22;789;51.612;7.510;2023-02-28T01:16:50;2.70;1.00
1592;DHT22;789;51.612;7.510;2023-02-28T01:19:17;2.70;1.00
1592;DHT22;789;51.612;7.510;2023-02-28T01:21:43;2.70;1.00
1592;DHT22;789;51.612;7.510;2023-02-28T01:24:10;2.60;1.00
1592;DHT22;789;51.612;7.510;2023-02-28T01:26:37;2.60;1.00
1592;DHT22;789;51.612;7.510;2023-02-28T01:29:03;2.50;1.00
1592;DHT22;789;51.612;7.510;2023-02-28T01:31:30;2.60;1.00
1592;DHT22;789;51.612;7.510;2023-02-28T01:33:58;2.50;1.00
1592;DHT22;789;51.612;7.510;2023-02-28T01:36:25;2.40;1.00
1592;DHT22;789;51.612;7.510;2023-02-28T01:38:52;2.30;1.00
1592;DHT22;789;51.612;7.510;2023-02-28T01:41:21;2.30;1.00
1592;DHT22;789;51.612;7.510;2023-02-28T01:44:06;2.20;1.00
1592;DHT22;789;51.612;7.510;2023-02-28T01:46:34;2.20;1.00
1592;DHT22;789;51.612;7.510;2023-02-28T01:49:06;2.20;1.00
1592;DHT22;789;51.612;7.510;2023-02-28T01:51:37;2.20;1.00
1592;DHT22;789;51.612;7.510;2023-02-28T01:54:07;2.20;1.00
1592;DHT22;789;51.612;7.510;2023-02-28T01:56:42;2.10;1.00
1592;DHT22;789;51.612;7.510;2023-02-28T01:59:09;2.10;1.00
1592;DHT22;789;51.612;7.510;2023-02-28T02:01:36;2.10;1.00
1592;DHT22;789;51.612;7.510;2023-02-28T02:04:04;2.20;1.00
1592;DHT22;789;51.612;7.510;2023-02-28T02:06:34;2.10;1.00
1592;DHT22;789;51.612;7.510;2023-02-28T02:09:03;2.10;1.00
1592;DHT22;789;51.612;7.510;2023-02-28T02:11:30;2.10;1.00
1592;DHT22;789;51.612;7.510;2023-02-28T02:14:14;2.10;1.00
1592;DHT22;789;51.612;7.510;2023-02-28T02:16:52;2.10;1.00
1592;DHT22;789;51.612;7.510;2023-02-28T02:19:40;2.10;1.00
1592;DHT22;789;51.612;7.510;2023-02-28T02:25:12;2.00;1.00
1592;DHT22;789;51.612;7.510;2023-02-28T02:28:03;2.00;1.00
1592;DHT22;789;51.612;7.510;2023-02-28T02:31:05;2.00;1.00
1592;DHT22;789;51.612;7.510;2023-02-28T02:36:52;2.00;1.00
1592;DHT22;789;51.612;7.510;2023-02-28T02:39:30;2.00;1.00
1592;DHT22;789;51.612;7.510;2023-02-28T02:42:01;2.00;1.00
1592;DHT22;789;51.612;7.510;2023-02-28T02:44:33;2.00;1.00
1592;DHT22;789;51.612;7.510;2023-02-28T02:47:08;2.00;1.00
1592;DHT22;789;51.612;7.510;2023-02-28T02:49:36;2.00;1.00
1592;DHT22;789;51.612;7.510;2023-02-28T02:52:08;2.00;1.00
1592;DHT22;789;51.612;7.510;2023-02-28T02:54:37;2.00;1.00
1592;DHT22;789;51.612;7.510;2023-02-28T02:57:06;2.00;1.00
1592;DHT22;789;51.612;7.510;2023-02-28T02:59:35;2.00;1.00
1592;DHT22;789;51.612;7.510;2023-02-28T03:02:07;2.00;1.00
1592;DHT22;789;51.612;7.510;2023-02-28T03:04:39;2.00;1.00
1592;DHT22;789;51.612;7.510;2023-02-28T03:07:09;2.00;1.00
1592;DHT22;789;51.612;7.510;2023-02-28T03:09:36;1.90;1.00
1592;DHT22;789;51.612;7.510;2023-02-28T03:12:04;1.90;1.00
1592;DHT22;789;51.612;7.510;2023-02-28T03:14:42;1.90;1.00
1592;DHT22;789;51.612;7.510;2023-02-28T03:17:24;1.80;1.00
1592;DHT22;789;51.612;7.510;2023-02-28T03:20:01;1.80;1.00
1592;DHT22;789;51.612;7.510;2023-02-28T03:22:45;1.80;1.00
1592;DHT22;789;51.612;7.510;2023-02-28T03:25:20;1.70;1.00
1592;DHT22;789;51.612;7.510;2023-02-28T03:27:54;1.70;1.00
1592;DHT22;789;51.612;7.510;2023-02-28T03:30:27;1.70;1.00
1592;DHT22;789;51.612;7.510;2023-02-28T03:33:05;1.70;1.00
1592;DHT22;789;51.612;7.510;2023-02-28T03:35:34;1.70;1.00
1592;DHT22;789;51.612;7.510;2023-02-28T03:38:15;1.70;1.00
1592;DHT22;789;51.612;7.510;2023-02-28T03:40:48;1.70;1.00
1592;DHT22;789;51.612;7.510;2023-02-28T03:43:18;1.70;1.00
1592;DHT22;789;51.612;7.510;2023-02-28T03:45:48;1.70;1.00
1592;DHT22;789;51.612;7.510;2023-02-28T03:48:19;1.70;1.00
1592;DHT22;789;51.612;7.510;2023-02-28T03:50:50;1.70;1.00
1592;DHT22;789;51.612;7.510;2023-02-28T03:53:23;1.60;1.00
1592;DHT22;789;51.612;7.510;2023-02-28T03:55:53;1.60;1.00
1592;DHT22;789;51.612;7.510;2023-02-28T03:58:26;1.60;1.00
1592;DHT22;789;51.612;7.510;2023-02-28T04:00:59;1.60;1.00
1592;DHT22;789;51.612;7.510;2023-02-28T04:03:33;1.60;1.00
1592;DHT22;789;51.612;7.510;2023-02-28T04:06:00;1.60;1.00
1592;DHT22;789;51.612;7.510;2023-02-28T04:08:28;1.60;1.00
1592;DHT22;789;51.612;7.510;2023-02-28T04:10:58;1.60;1.00
1592;DHT22;789;51.612;7.510;2023-02-28T04:13:27;1.60;1.00
1592;DHT22;789;51.612;7.510;2023-02-28T04:15:53;1.60;1.00
1592;DHT22;789;51.612;7.510;2023-02-28T04:18:20;1.60;1.00
1592;DHT22;789;51.612;7.510;2023-02-28T04:20:47;1.60;1.00
1592;DHT22;789;51.612;7.510;2023-02-28T04:23:13;1.60;1.00
1592;DHT22;789;51.612;7.510;2023-02-28T04:25:41;1.50;1.00
1592;DHT22;789;51.612;7.510;2023-02-28T04:28:08;1.50;1.00
1592;DHT22;789;51.612;7.510;2023-02-28T04:30:37;1.50;1.00
1592;DHT22;789;51.612;7.510;2023-02-28T04:33:04;1.50;1.00
1592;DHT22;789;51.612;7.510;2023-02-28T04:35:31;1.50;1.00
1592;DHT22;789;51.612;7.510;2023-02-28T04:37:57;1.50;1.00
1592;DHT22;789;51.612;7.510;2023-02-28T04:40:24;1.40;1.00
1592;DHT22;789;51.612;7.510;2023-02-28T04:42:52;1.40;1.00
1592;DHT22;789;51.612;7.510;2023-02-28T04:45:19;1.40;1.00
1592;DHT22;789;51.612;7.510;2023-02-28T04:47:46;1.30;1.00
1592;DHT22;789;51.612;7.510;2023-02-28T04:50:15;1.30;1.00
1592;DHT22;789;51.612;7.510;2023-02-28T04:52:51;1.30;1.00
1592;DHT22;789;51.612;7.510;2023-02-28T04:55:23;1.30;1.00
1592;DHT22;789;51.612;7.510;2023-02-28T04:57:51;1.30;1.00
1592;DHT22;789;51.612;7.510;2023-02-28T05:00:18;1.20;1.00
1592;DHT22;789;51.612;7.510;2023-02-28T05:02:45;1.20;1.00
1592;DHT22;789;51.612;7.510;2023-02-28T05:05:12;1.20;1.00
1592;DHT22;789;51.612;7.510;2023-02-28T05:07:43;1.20;1.00
1592;DHT22;789;51.612;7.510;2023-02-28T05:10:11;1.20;1.00
1592;DHT22;789;51.612;7.510;2023-02-28T05:12:37;1.20;1.00
1592;DHT22;789;51.612;7.510;2023-02-28T05:15:08;1.20;1.00
1592;DHT22;789;51.612;7.510;2023-02-28T05:17:38;1.20;1.00
1592;DHT22;789;51.612;7.510;2023-02-28T05:20:06;1.20;1.00
1592;DHT22;789;51.612;7.510;2023-02-28T05:22:34;1.20;1.00
1592;DHT22;789;51.612;7.510;2023-02-28T05:25:00;1.20;1.00
1592;DHT22;789;51.612;7.510;2023-02-28T05:27:27;1.20;1.00
1592;DHT22;789;51.612;7.510;2023-02-28T05:29:54;1.20;1.00
1592;DHT22;789;51.612;7.510;2023-02-28T05:32:22;1.20;1.00
1592;DHT22;789;51.612;7.510;2023-02-28T05:34:49;1.20;1.00
1592;DHT22;789;51.612;7.510;2023-02-28T05:37:16;1.20;1.00
1592;DHT22;789;51.612;7.510;2023-02-28T05:39:43;1.10;1.00
1592;DHT22;789;51.612;7.510;2023-02-28T05:42:09;1.10;1.00
1592;DHT22;789;51.612;7.510;2023-02-28T05:44:36;1.00;1.00
1592;DHT22;789;51.612;7.510;2023-02-28T05:47:03;1.00;1.00
1592;DHT22;789;51.612;7.510;2023-02-28T05:49:31;1.00;1.00
1592;DHT22;789;51.612;7.510;2023-02-28T05:51:57;1.00;1.00
1592;DHT22;789;51.612;7.510;2023-02-28T05:54:24;1.00;1.00
1592;DHT22;789;51.612;7.510;2023-02-28T05:56:51;0.90;1.00
1592;DHT22;789;51.612;7.510;2023-02-28T05:59:18;1.00;1.00
1592;DHT22;789;51.612;7.510;2023-02-28T06:01:45;1.00;1.00
1592;DHT22;789;51.612;7.510;2023-02-28T06:04:16;0.90;1.00
1592;DHT22;789;51.612;7.510;2023-02-28T06:06:45;1.00;1.00
1592;DHT22;789;51.612;7.510;2023-02-28T06:09:12;0.90;1.00
1592;DHT22;789;51.612;7.510;2023-02-28T06:11:40;0.90;1.00
1592;DHT22;789;51.612;7.510;2023-02-28T06:14:09;0.90;1.00
1592;DHT22;789;51.612;7.510;2023-02-28T06:16:39;0.90;1.00
1592;DHT22;789;51.612;7.510;2023-02-28T06:19:06;0.90;1.00
1592;DHT22;789;51.612;7.510;2023-02-28T06:21:33;0.90;1.00
1592;DHT22;789;51.612;7.510;2023-02-28T06:24:01;0.90;1.00
1592;DHT22;789;51.612;7.510;2023-02-28T06:26:28;0.90;1.00
1592;DHT22;789;51.612;7.510;2023-02-28T06:28:56;0.90;1.00
1592;DHT22;789;51.612;7.510;2023-02-28T06:31:23;0.90;1.00
1592;DHT22;789;51.612;7.510;2023-02-28T06:33:51;0.90;1.00
1592;DHT22;789;51.612;7.510;2023-02-28T06:36:18;0.90;1.00
1592;DHT22;789;51.612;7.510;2023-02-28T06:38:45;1.00;1.00
1592;DHT22;789;51.612;7.510;2023-02-28T06:41:18;1.00;1.00
1592;DHT22;789;51.612;7.510;2023-02-28T06:43:44;1.00;1.00
1592;DHT22;789;51.612;7.510;2023-02-28T06:46:13;1.00;1.00
1592;DHT22;789;51.612;7.510;2023-02-28T06:48:40;1.00;1.00
1592;DHT22;789;51.612;7.510;2023-02-28T06:51:10;1.00;1.00
1592;DHT22;789;51.612;7.510;2023-02-28T06:53:37;1.00;1.00
1592;DHT22;789;51.612;7.510;2023-02-28T06:56:04;1.00;1.00
1592;DHT22;789;51.612;7.510;2023-02-28T06:58:34;1.00;1.00
1592;DHT22;789;51.612;7.510;2023-02-28T07:01:01;1.00;1.00
1592;DHT22;789;51.612;7.510;2023-02-28T07:03:28;1.00;1.00
1592;DHT22;789;51.612;7.510;2023-02-28T07:05:54;1.00;1.00
1592;DHT22;789;51.612;7.510;2023-02-28T07:08:21;1.00;1.00
1592;DHT22;789;51.612;7.510;2023-02-28T07:10:51;1.10;1.00
1592;DHT22;789;51.612;7.510;2023-02-28T07:13:18;1.10;1.00
1592;DHT22;789;51.612;7.510;2023-02-28T07:15:53;1.10;1.00
1592;DHT22;789;51.612;7.510;2023-02-28T07:18:19;1.10;1.00
1592;DHT22;789;51.612;7.510;2023-02-28T07:20:46;1.10;1.00
1592;DHT22;789;51.612;7.510;2023-02-28T07:23:13;1.20;1.00
1592;DHT22;789;51.612;7.510;2023-02-28T07:25:40;1.30;1.00
1592;DHT22;789;51.612;7.510;2023-02-28T07:28:06;1.30;1.00
1592;DHT22;789;51.612;7.510;2023-02-28T07:30:34;1.40;1.00
1592;DHT22;789;51.612;7.510;2023-02-28T07:33:02;1.50;1.00
1592;DHT22;789;51.612;7.510;2023-02-28T07:35:29;1.50;1.00
1592;DHT22;789;51.612;7.510;2023-02-28T07:37:58;1.60;1.00
1592;DHT22;789;51.612;7.510;2023-02-28T07:40:25;1.70;1.00
1592;DHT22;789;51.612;7.510;2023-02-28T07:42:52;1.70;1.00
1592;DHT22;789;51.612;7.510;2023-02-28T07:45:18;2.00;1.00
1592;DHT22;789;51.612;7.510;2023-02-28T07:47:45;2.90;1.00
1592;DHT22;789;51.612;7.510;2023-02-28T07:50:15;4.30;1.00
1592;DHT22;789;51.612;7.510;2023-02-28T07:52:41;6.00;1.00
1592;DHT22;789;51.612;7.510;2023-02-28T07:55:09;7.60;1.00
1592;DHT22;789;51.612;7.510;2023-02-28T07:57:36;9.20;1.00
1592;DHT22;789;51.612;7.510;2023-02-28T08:00:04;10.70;1.00
1592;DHT22;789;51.612;7.510;2023-02-28T08:02:32;12.00;1.00
1592;DHT22;789;51.612;7.510;2023-02-28T08:04:59;13.30;1.00
1592;DHT22;789;51.612;7.510;2023-02-28T08:07:28;14.60;1.00
1592;DHT22;789;51.612;7.510;2023-02-28T08:09:54;15.70;1.00
1592;DHT22;789;51.612;7.510;2023-02-28T08:12:21;16.60;1.00
1592;DHT22;789;51.612;7.510;2023-02-28T08:14:48;17.40;1.00
1592;DHT22;789;51.612;7.510;2023-02-28T08:17:14;18.30;1.00
1592;DHT22;789;51.612;7.510;2023-02-28T08:19:41;19.10;1.00
1592;DHT22;789;51.612;7.510;2023-02-28T08:22:08;19.90;1.00
1592;DHT22;789;51.612;7.510;2023-02-28T08:24:36;20.40;1.00
1592;DHT22;789;51.612;7.510;2023-02-28T08:27:02;21.00;1.00
1592;DHT22;789;51.612;7.510;2023-02-28T08:29:29;21.40;1.00
1592;DHT22;789;51.612;7.510;2023-02-28T08:31:56;21.80;1.00
1592;DHT22;789;51.612;7.510;2023-02-28T08:34:24;22.00;1.00
1592;DHT22;789;51.612;7.510;2023-02-28T08:36:50;22.30;1.00
1592;DHT22;789;51.612;7.510;2023-02-28T08:39:18;22.60;1.00
1592;DHT22;789;51.612;7.510;2023-02-28T08:41:46;23.10;1.00
1592;DHT22;789;51.612;7.510;2023-02-28T08:44:13;23.50;1.00
1592;DHT22;789;51.612;7.510;2023-02-28T08:46:40;23.80;1.00
1592;DHT22;789;51.612;7.510;2023-02-28T08:49:06;24.10;1.00
1592;DHT22;789;51.612;7.510;2023-02-28T08:51:35;24.40;1.00
1592;DHT22;789;51.612;7.510;2023-02-28T08:54:01;24.50;1.00
1592;DHT22;789;51.612;7.510;2023-02-28T08:56:28;24.60;1.00
1592;DHT22;789;51.612;7.510;2023-02-28T08:58:57;24.70;1.00
1592;DHT22;789;51.612;7.510;2023-02-28T09:01:26;24.70;1.00
1592;DHT22;789;51.612;7.510;2023-02-28T09:03:54;24.50;1.00
1592;DHT22;789;51.612;7.510;2023-02-28T09:06:24;24.40;1.00
1592;DHT22;789;51.612;7.510;2023-02-28T09:08:51;23.80;1.00
1592;DHT22;789;51.612;7.510;2023-02-28T09:11:18;23.70;1.00
1592;DHT22;789;51.612;7.510;2023-02-28T09:13:46;23.70;1.00
1592;DHT22;789;51.612;7.510;2023-02-28T09:16:15;23.90;1.00
1592;DHT22;789;51.612;7.510;2023-02-28T09:18:42;24.30;1.00
1592;DHT22;789;51.612;7.510;2023-02-28T09:21:12;24.50;1.00
1592;DHT22;789;51.612;7.510;2023-02-28T09:23:39;24.80;1.00
1592;DHT22;789;51.612;7.510;2023-02-28T09:26:07;24.90;1.00
1592;DHT22;789;51.612;7.510;2023-02-28T09:28:34;24.60;1.00
1592;DHT22;789;51.612;7.510;2023-02-28T09:31:00;24.80;1.00
1592;DHT22;789;51.612;7.510;2023-02-28T09:33:31;25.10;1.00
1592;DHT22;789;51.612;7.510;2023-02-28T09:36:00;25.40;1.00
1592;DHT22;789;51.612;7.510;2023-02-28T09:38:27;25.80;1.00
1592;DHT22;789;51.612;7.510;2023-02-28T09:40:56;26.20;1.00
1592;DHT22;789;51.612;7.510;2023-02-28T09:43:27;26.50;1.00
1592;DHT22;789;51.612;7.510;2023-02-28T09:45:59;26.80;1.00
1592;DHT22;789;51.612;7.510;2023-02-28T09:48:31;26.70;1.00
1592;DHT22;789;51.612;7.510;2023-02-28T09:51:03;25.80;1.00
1592;DHT22;789;51.612;7.510;2023-02-28T09:53:32;25.70;1.00
1592;DHT22;789;51.612;7.510;2023-02-28T09:56:02;25.70;1.00
1592;DHT22;789;51.612;7.510;2023-02-28T09:58:36;24.80;1.00
1592;DHT22;789;51.612;7.510;2023-02-28T10:01:08;23.80;1.00
1592;DHT22;789;51.612;7.510;2023-02-28T10:03:39;23.00;1.00
1592;DHT22;789;51.612;7.510;2023-02-28T10:06:11;22.80;1.00
1592;DHT22;789;51.612;7.510;2023-02-28T10:08:44;21.70;1.00
1592;DHT22;789;51.612;7.510;2023-02-28T10:11:16;20.30;1.00
1592;DHT22;789;51.612;7.510;2023-02-28T10:13:52;19.20;1.00
1592;DHT22;789;51.612;7.510;2023-02-28T10:16:25;18.50;1.00
1592;DHT22;789;51.612;7.510;2023-02-28T10:18:59;18.20;1.00
1592;DHT22;789;51.612;7.510;2023-02-28T10:21:30;17.80;1.00
1592;DHT22;789;51.612;7.510;2023-02-28T10:24:03;17.40;1.00
1592;DHT22;789;51.612;7.510;2023-02-28T10:26:32;17.20;1.00
1592;DHT22;789;51.612;7.510;2023-02-28T10:29:00;17.60;1.00
1592;DHT22;789;51.612;7.510;2023-02-28T10:31:28;17.90;1.00
1592;DHT22;789;51.612;7.510;2023-02-28T10:33:56;18.20;1.00
1592;DHT22;789;51.612;7.510;2023-02-28T10:36:23;18.00;1.00
1592;DHT22;789;51.612;7.510;2023-02-28T10:38:50;17.80;1.00
1592;DHT22;789;51.612;7.510;2023-02-28T10:41:27;17.30;1.00
1592;DHT22;789;51.612;7.510;2023-02-28T10:44:13;17.00;1.00
1592;DHT22;789;51.612;7.510;2023-02-28T10:46:41;17.20;1.00
1592;DHT22;789;51.612;7.510;2023-02-28T10:49:15;17.10;1.00
1592;DHT22;789;51.612;7.510;2023-02-28T10:51:43;16.50;1.00
1592;DHT22;789;51.612;7.510;2023-02-28T10:54:16;15.20;1.00
1592;DHT22;789;51.612;7.510;2023-02-28T10:56:43;14.10;1.00
1592;DHT22;789;51.612;7.510;2023-02-28T10:59:28;13.00;1.00
1592;DHT22;789;51.612;7.510;2023-02-28T11:01:55;12.30;1.00
1592;DHT22;789;51.612;7.510;2023-02-28T11:04:35;11.90;1.00
1592;DHT22;789;51.612;7.510;2023-02-28T11:07:09;12.10;1.00
1592;DHT22;789;51.612;7.510;2023-02-28T11:09:45;13.00;1.00
1592;DHT22;789;51.612;7.510;2023-02-28T11:12:20;14.00;1.00
1592;DHT22;789;51.612;7.510;2023-02-28T11:14:50;14.00;1.00
1592;DHT22;789;51.612;7.510;2023-02-28T11:17:21;13.50;1.00
1592;DHT22;789;51.612;7.510;2023-02-28T11:19:51;13.00;1.00
1592;DHT22;789;51.612;7.510;2023-02-28T11:22:21;13.00;1.00
1592;DHT22;789;51.612;7.510;2023-02-28T11:24:51;12.60;1.00
1592;DHT22;789;51.612;7.510;2023-02-28T11:30:27;11.90;1.00
1592;DHT22;789;51.612;7.510;2023-02-28T11:32:54;11.80;1.00
1592;DHT22;789;51.612;7.510;2023-02-28T11:35:26;11.90;1.00
1592;DHT22;789;51.612;7.510;2023-02-28T11:37:53;12.50;1.00
1592;DHT22;789;51.612;7.510;2023-02-28T11:40:26;13.10;1.00
1592;DHT22;789;51.612;7.510;2023-02-28T11:43:01;13.70;1.00
1592;DHT22;789;51.612;7.510;2023-02-28T11:45:50;14.30;1.00
1592;DHT22;789;51.612;7.510;2023-02-28T11:48:23;15.30;1.00
1592;DHT22;789;51.612;7.510;2023-02-28T11:51:02;16.20;1.00
1592;DHT22;789;51.612;7.510;2023-02-28T11:56:25;15.90;1.00
1592;DHT22;789;51.612;7.510;2023-02-28T11:59:04;14.50;1.00
1592;DHT22;789;51.612;7.510;2023-02-28T12:01:47;13.30;1.00
1592;DHT22;789;51.612;7.510;2023-02-28T12:04:27;12.10;1.00
1592;DHT22;789;51.612;7.510;2023-02-28T12:07:06;11.70;1.00
1592;DHT22;789;51.612;7.510;2023-02-28T12:09:50;11.90;1.00
1592;DHT22;789;51.612;7.510;2023-02-28T12:12:25;11.90;1.00
1592;DHT22;789;51.612;7.510;2023-02-28T12:15:05;11.40;1.00
1592;DHT22;789;51.612;7.510;2023-02-28T12:17:51;10.80;1.00
1592;DHT22;789;51.612;7.510;2023-02-28T12:20:27;10.50;1.00
1592;DHT22;789;51.612;7.510;2023-02-28T12:23:08;10.40;1.00
1592;DHT22;789;51.612;7.510;2023-02-28T12:25:47;10.70;1.00
1592;DHT22;789;51.612;7.510;2023-02-28T12:28:19;11.20;1.00
1592;DHT22;789;51.612;7.510;2023-02-28T12:30:52;12.10;1.00
1592;DHT22;789;51.612;7.510;2023-02-28T12:33:24;13.40;1.00
1592;DHT22;789;51.612;7.510;2023-02-28T12:35:54;14.10;1.00
1592;DHT22;789;51.612;7.510;2023-02-28T12:38:26;13.90;1.00
1592;DHT22;789;51.612;7.510;2023-02-28T12:40:57;13.90;1.00
1592;DHT22;789;51.612;7.510;2023-02-28T12:43:30;13.70;1.00
1592;DHT22;789;51.612;7.510;2023-02-28T12:46:02;13.30;1.00
1592;DHT22;789;51.612;7.510;2023-02-28T12:48:36;12.80;1.00
1592;DHT22;789;51.612;7.510;2023-02-28T12:51:06;12.10;1.00
1592;DHT22;789;51.612;7.510;2023-02-28T12:53:47;11.50;1.00
1592;DHT22;789;51.612;7.510;2023-02-28T12:56:20;11.00;1.00
1592;DHT22;789;51.612;7.510;2023-02-28T12:58:53;10.40;1.00
1592;DHT22;789;51.612;7.510;2023-02-28T13:01:39;9.80;1.00
1592;DHT22;789;51.612;7.510;2023-02-28T13:10:16;8.80;1.00
1592;DHT22;789;51.612;7.510;2023-02-28T13:12:48;8.70;1.00
1592;DHT22;789;51.612;7.510;2023-02-28T13:15:18;8.50;1.00
1592;DHT22;789;51.612;7.510;2023-02-28T13:17:50;8.30;1.00
1592;DHT22;789;51.612;7.510;2023-02-28T13:20:19;8.20;1.00
1592;DHT22;789;51.612;7.510;2023-02-28T13:22:48;8.00;1.00
1592;DHT22;789;51.612;7.510;2023-02-28T13:34:41;7.80;1.00
1592;DHT22;789;51.612;7.510;2023-02-28T13:37:33;7.60;1.00
1592;DHT22;789;51.612;7.510;2023-02-28T13:40:27;7.50;1.00
1592;DHT22;789;51.612;7.510;2023-02-28T13:42:54;7.50;1.00
1592;DHT22;789;51.612;7.510;2023-02-28T13:45:28;7.40;1.00
1592;DHT22;789;51.612;7.510;2023-02-28T13:47:59;7.30;1.00
1592;DHT22;789;51.612;7.510;2023-02-28T13:50:33;7.30;1.00
1592;DHT22;789;51.612;7.510;2023-02-28T13:56:27;7.20;1.00
1592;DHT22;789;51.612;7.510;2023-02-28T13:59:03;7.10;1.00
1592;DHT22;789;51.612;7.510;2023-02-28T14:01:57;7.00;1.00
1592;DHT22;789;51.612;7.510;2023-02-28T14:04:48;6.90;1.00
1592;DHT22;789;51.612;7.510;2023-02-28T14:07:23;6.80;1.00
1592;DHT22;789;51.612;7.510;2023-02-28T14:09:58;6.80;1.00
1592;DHT22;789;51.612;7.510;2023-02-28T14:12:57;6.70;1.00
1592;DHT22;789;51.612;7.510;2023-02-28T14:15:43;6.70;1.00
1592;DHT22;789;51.612;7.510;2023-02-28T14:18:17;6.70;1.00
1592;DHT22;789;51.612;7.510;2023-02-28T14:20:46;6.70;1.00
1592;DHT22;789;51.612;7.510;2023-02-28T14:23:20;6.70;1.00
1592;DHT22;789;51.612;7.510;2023-02-28T14:25:58;6.80;1.00
1592;DHT22;789;51.612;7.510;2023-02-28T14:28:41;6.80;1.00
1592;DHT22;789;51.612;7.510;2023-02-28T14:31:13;6.80;1.00
1592;DHT22;789;51.612;7.510;2023-02-28T14:33:57;6.80;1.00
1592;DHT22;789;51.612;7.510;2023-02-28T14:36:30;6.80;1.00
1592;DHT22;789;51.612;7.510;2023-02-28T14:39:01;6.80;1.00
1592;DHT22;789;51.612;7.510;2023-02-28T14:41:33;6.70;1.00
1592;DHT22;789;51.612;7.510;2023-02-28T14:44:12;6.70;1.00
1592;DHT22;789;51.612;7.510;2023-02-28T14:46:41;6.60;1.00
1592;DHT22;789;51.612;7.510;2023-02-28T14:49:19;6.70;1.00
1592;DHT22;789;51.612;7.510;2023-02-28T14:51:49;6.70;1.00
1592;DHT22;789;51.612;7.510;2023-02-28T14:54:21;6.80;1.00
1592;DHT22;789;51.612;7.510;2023-02-28T14:56:50;6.70;1.00
1592;DHT22;789;51.612;7.510;2023-02-28T14:59:24;6.70;1.00
1592;DHT22;789;51.612;7.510;2023-02-28T15:01:52;6.60;1.00
1592;DHT22;789;51.612;7.510;2023-02-28T15:04:25;6.60;1.00
1592;DHT22;789;51.612;7.510;2023-02-28T15:07:09;6.60;1.00
1592;DHT22;789;51.612;7.510;2023-02-28T15:09:38;6.60;1.00
1592;DHT22;789;51.612;7.510;2023-02-28T15:12:05;6.60;1.00
1592;DHT22;789;51.612;7.510;2023-02-28T15:14:32;6.50;1.00
1592;DHT22;789;51.612;7.510;2023-02-28T15:17:03;6.50;1.00
1592;DHT22;789;51.612;7.510;2023-02-28T15:19:33;6.50;1.00
1592;DHT22;789;51.612;7.510;2023-02-28T15:22:04;6.50;1.00
1592;DHT22;789;51.612;7.510;2023-02-28T15:24:38;6.50;1.00
1592;DHT22;789;51.612;7.510;2023-02-28T15:27:09;6.50;1.00
1592;DHT22;789;51.612;7.510;2023-02-28T15:29:45;6.40;1.00
1592;DHT22;789;51.612;7.510;2023-02-28T15:32:26;6.50;1.00
1592;DHT22;789;51.612;7.510;2023-02-28T15:34:54;6.50;1.00
1592;DHT22;789;51.612;7.510;2023-02-28T15:37:33;6.50;1.00
1592;DHT22;789;51.612;7.510;2023-02-28T15:40:14;6.50;1.00
1592;DHT22;789;51.612;7.510;2023-02-28T15:42:42;6.50;1.00
1592;DHT22;789;51.612;7.510;2023-02-28T15:45:32;6.40;1.00
1592;DHT22;789;51.612;7.510;2023-02-28T15:48:00;6.40;1.00
1592;DHT22;789;51.612;7.510;2023-02-28T15:50:28;6.30;1.00
1592;DHT22;789;51.612;7.510;2023-02-28T15:52:55;6.30;1.00
1592;DHT22;789;51.612;7.510;2023-02-28T15:55:27;6.30;1.00
1592;DHT22;789;51.612;7.510;2023-02-28T15:57:56;6.30;1.00
1592;DHT22;789;51.612;7.510;2023-02-28T16:00:26;6.30;1.00
1592;DHT22;789;51.612;7.510;2023-02-28T16:02:53;6.30;1.00
1592;DHT22;789;51.612;7.510;2023-02-28T16:05:23;6.20;1.00
1592;DHT22;789;51.612;7.510;2023-02-28T16:07:57;6.20;1.00
1592;DHT22;789;51.612;7.510;2023-02-28T16:10:27;6.30;1.00
1592;DHT22;789;51.612;7.510;2023-02-28T16:12:55;6.30;1.00
1592;DHT22;789;51.612;7.510;2023-02-28T16:15:24;6.30;1.00
1592;DHT22;789;51.612;7.510;2023-02-28T16:17:52;6.30;1.00
1592;DHT22;789;51.612;7.510;2023-02-28T16:20:21;6.30;1.00
1592;DHT22;789;51.612;7.510;2023-02-28T16:22:49;6.30;1.00
1592;DHT22;789;51.612;7.510;2023-02-28T16:25:18;6.30;1.00
1592;DHT22;789;51.612;7.510;2023-02-28T16:27:48;6.20;1.00
1592;DHT22;789;51.612;7.510;2023-02-28T16:30:19;6.20;1.00
1592;DHT22;789;51.612;7.510;2023-02-28T16:32:46;6.20;1.00
1592;DHT22;789;51.612;7.510;2023-02-28T16:35:14;6.20;1.00
1592;DHT22;789;51.612;7.510;2023-02-28T16:37:40;6.30;1.00
1592;DHT22;789;51.612;7.510;2023-02-28T16:40:10;6.20;1.00
1592;DHT22;789;51.612;7.510;2023-02-28T16:42:40;6.20;1.00
1592;DHT22;789;51.612;7.510;2023-02-28T16:45:15;6.10;1.00
1592;DHT22;789;51.612;7.510;2023-02-28T16:47:42;6.10;1.00
1592;DHT22;789;51.612;7.510;2023-02-28T16:50:13;6.00;1.00
1592;DHT22;789;51.612;7.510;2023-02-28T16:52:40;6.00;1.00
1592;DHT22;789;51.612;7.510;2023-02-28T16:55:08;6.00;1.00
1592;DHT22;789;51.612;7.510;2023-02-28T16:57:35;6.00;1.00
1592;DHT22;789;51.612;7.510;2023-02-28T17:00:02;5.90;1.00
1592;DHT22;789;51.612;7.510;2023-02-28T17:02:31;5.90;1.00
1592;DHT22;789;51.612;7.510;2023-02-28T17:04:57;5.90;1.00
1592;DHT22;789;51.612;7.510;2023-02-28T17:07:24;5.90;1.00
1592;DHT22;789;51.612;7.510;2023-02-28T17:09:51;5.90;1.00
1592;DHT22;789;51.612;7.510;2023-02-28T17:12:17;5.90;1.00
1592;DHT22;789;51.612;7.510;2023-02-28T17:14:44;5.80;1.00
1592;DHT22;789;51.612;7.510;2023-02-28T17:17:16;5.80;1.00
1592;DHT22;789;51.612;7.510;2023-02-28T17:19:45;5.80;1.00
1592;DHT22;789;51.612;7.510;2023-02-28T17:22:12;5.80;1.00
1592;DHT22;789;51.612;7.510;2023-02-28T17:24:38;5.80;1.00
1592;DHT22;789;51.612;7.510;2023-02-28T17:27:05;5.70;1.00
1592;DHT22;789;51.612;7.510;2023-02-28T17:29:33;5.70;1.00
1592;DHT22;789;51.612;7.510;2023-02-28T17:32:00;5.70;1.00
1592;DHT22;789;51.612;7.510;2023-02-28T17:34:27;5.60;1.00
1592;DHT22;789;51.612;7.510;2023-02-28T17:36:55;5.60;1.00
1592;DHT22;789;51.612;7.510;2023-02-28T17:39:21;5.60;1.00